createdAt,value
2022-12-11T00:02:03.378Z,-0.14
2022-12-11T00:04:31.455Z,-0.22
2022-12-11T00:06:59.346Z,-0.21
2022-12-11T00:09:27.354Z,-0.19
2022-12-11T00:11:55.361Z,-0.22
2022-12-11T00:14:23.260Z,-0.06
2022-12-11T00:16:51.232Z,-0.13
2022-12-11T00:19:20.556Z,-0.32
2022-12-11T00:21:48.444Z,-0.41
2022-12-11T00:24:16.771Z,-0.31
2022-12-11T00:26:44.640Z,-0.27
2022-12-11T00:29:14.668Z,-0.18
2022-12-11T00:31:43.000Z,-0.29
2022-12-11T00:34:12.069Z,-0.53
2022-12-11T00:36:41.366Z,-0.52
2022-12-11T00:39:09.251Z,-0.48
2022-12-11T00:41:37.168Z,-0.39
2022-12-11T00:44:05.692Z,-0.50
2022-12-11T00:46:33.619Z,-0.40
2022-12-11T00:49:01.500Z,-0.51
2022-12-11T00:51:29.436Z,-0.65
2022-12-11T00:53:58.685Z,-0.64
2022-12-11T00:56:26.637Z,-0.50
2022-12-11T00:58:54.552Z,-0.45
2022-12-11T01:01:24.124Z,-0.31
2022-12-11T01:03:52.789Z,-0.14
2022-12-11T01:06:24.722Z,-0.32
2022-12-11T01:09:14.647Z,-0.30
2022-12-11T01:11:43.288Z,-0.43
2022-12-11T01:14:11.743Z,-0.23
2022-12-11T01:16:39.742Z,-0.33
2022-12-11T01:19:07.684Z,-0.43
2022-12-11T01:21:35.599Z,-0.35
2022-12-11T01:24:03.528Z,-0.19
2022-12-11T01:26:31.438Z,-0.20
2022-12-11T01:29:01.404Z,-0.42
2022-12-11T01:31:29.496Z,-0.29
2022-12-11T01:33:57.765Z,-0.49
2022-12-11T01:36:25.771Z,-0.28
2022-12-11T01:38:54.519Z,-0.53
2022-12-11T01:41:22.527Z,-0.41
2022-12-11T01:44:03.962Z,-0.38
2022-12-11T01:46:33.898Z,-0.39
2022-12-11T01:49:02.663Z,-0.29
2022-12-11T01:51:31.048Z,-0.31
2022-12-11T01:54:00.899Z,-0.40
2022-12-11T01:56:31.950Z,-0.35
2022-12-11T01:59:07.048Z,-0.29
2022-12-11T02:01:38.614Z,-0.49
2022-12-11T02:04:08.080Z,-0.46
2022-12-11T02:06:38.390Z,-0.31
2022-12-11T02:09:07.764Z,-0.40
2022-12-11T02:11:41.167Z,-0.33
2022-12-11T02:14:17.456Z,-0.32
2022-12-11T02:16:48.201Z,-0.46
2022-12-11T02:19:23.347Z,-0.42
2022-12-11T02:21:54.425Z,-0.38
2022-12-11T02:24:32.134Z,-0.35
2022-12-11T02:27:29.999Z,-0.48
2022-12-11T02:30:03.532Z,-0.57
2022-12-11T02:32:36.451Z,-0.59
2022-12-11T02:35:10.521Z,-0.36
2022-12-11T02:37:41.169Z,-0.48
2022-12-11T02:40:12.312Z,-0.48
2022-12-11T02:42:42.169Z,-0.58
2022-12-11T02:45:12.983Z,-0.59
2022-12-11T02:47:41.194Z,-0.69
2022-12-11T02:50:12.530Z,-0.60
2022-12-11T02:52:42.865Z,-0.76
2022-12-11T02:55:13.595Z,-0.59
2022-12-11T02:57:45.741Z,-0.43
2022-12-11T03:00:16.712Z,-0.45
2022-12-11T03:02:45.365Z,-0.41
2022-12-11T03:05:14.346Z,-0.44
2022-12-11T03:07:46.107Z,-0.74
2022-12-11T03:10:16.432Z,-0.72
2022-12-11T03:12:48.115Z,-0.64
2022-12-11T03:15:23.175Z,-0.62
2022-12-11T03:17:59.204Z,-0.63
2022-12-11T03:20:34.808Z,-0.53
2022-12-11T03:23:07.011Z,-0.51
2022-12-11T03:25:37.693Z,-0.57
2022-12-11T03:28:11.204Z,-0.64
2022-12-11T03:30:41.523Z,-0.80
2022-12-11T03:33:11.827Z,-0.72
2022-12-11T03:35:42.036Z,-0.72
2022-12-11T03:38:13.777Z,-0.67
2022-12-11T03:40:44.423Z,-0.63
2022-12-11T03:43:12.595Z,-0.63
2022-12-11T03:45:42.643Z,-0.69
2022-12-11T03:48:11.469Z,-0.74
2022-12-11T03:50:39.716Z,-0.73
2022-12-11T03:53:08.306Z,-0.71
2022-12-11T03:55:37.775Z,-0.80
2022-12-11T03:58:05.695Z,-0.77
2022-12-11T04:00:33.690Z,-0.97
2022-12-11T04:03:15.126Z,-1.06
2022-12-11T04:05:43.815Z,-0.90
2022-12-11T04:08:11.895Z,-1.00
2022-12-11T04:10:40.150Z,-0.99
2022-12-11T04:13:08.666Z,-0.99
2022-12-11T04:15:35.713Z,-1.13
2022-12-11T04:18:22.520Z,-1.09
2022-12-11T04:21:07.644Z,-0.91
2022-12-11T04:24:07.446Z,-0.97
2022-12-11T04:26:35.366Z,-1.03
2022-12-11T04:29:03.275Z,-0.86
2022-12-11T04:31:31.281Z,-1.10
2022-12-11T04:34:00.606Z,-1.05
2022-12-11T04:36:28.594Z,-1.01
2022-12-11T04:38:56.558Z,-1.12
2022-12-11T04:41:24.444Z,-1.06
2022-12-11T04:43:52.412Z,-1.00
2022-12-11T04:46:22.570Z,-0.97
2022-12-11T04:48:56.844Z,-1.03
2022-12-11T04:51:27.108Z,-0.98
2022-12-11T04:53:55.518Z,-1.03
2022-12-11T04:56:23.505Z,-0.97
2022-12-11T04:58:51.412Z,-0.95
2022-12-11T05:01:22.285Z,-0.97
2022-12-11T05:03:50.338Z,-1.04
2022-12-11T05:06:18.270Z,-0.97
2022-12-11T05:08:47.572Z,-0.97
2022-12-11T05:11:16.824Z,-1.10
2022-12-11T05:13:45.425Z,-1.04
2022-12-11T05:16:15.794Z,-1.06
2022-12-11T05:18:44.357Z,-1.11
2022-12-11T05:21:15.063Z,-0.94
2022-12-11T05:23:43.634Z,-1.02
2022-12-11T05:26:15.783Z,-1.02
2022-12-11T05:28:44.454Z,-1.19
2022-12-11T05:31:15.984Z,-1.02
2022-12-11T05:33:44.153Z,-0.93
2022-12-11T05:36:15.187Z,-1.03
2022-12-11T05:38:43.092Z,-1.16
2022-12-11T05:41:16.756Z,-1.07
2022-12-11T05:43:44.731Z,-1.16
2022-12-11T05:46:14.971Z,-1.02
2022-12-11T05:48:43.669Z,-1.22
2022-12-11T05:51:12.206Z,-1.02
2022-12-11T05:53:41.581Z,-1.12
2022-12-11T05:56:12.690Z,-1.03
2022-12-11T05:58:43.185Z,-1.16
2022-12-11T06:01:12.748Z,-1.11
2022-12-11T06:03:40.697Z,-1.13
2022-12-11T06:06:09.156Z,-1.20
2022-12-11T06:08:37.240Z,-1.10
2022-12-11T06:11:05.401Z,-1.20
2022-12-11T06:13:33.623Z,-1.20
2022-12-11T06:16:04.200Z,-1.25
2022-12-11T06:18:32.743Z,-1.27
2022-12-11T06:21:00.575Z,-1.25
2022-12-11T06:23:28.483Z,-1.23
2022-12-11T06:25:56.351Z,-1.28
2022-12-11T06:28:24.177Z,-1.23
2022-12-11T06:30:52.601Z,-1.36
2022-12-11T06:33:21.806Z,-1.26
2022-12-11T06:35:49.641Z,-1.33
2022-12-11T06:38:17.512Z,-1.30
2022-12-11T06:40:45.471Z,-1.17
2022-12-11T06:43:13.307Z,-1.23
2022-12-11T06:45:41.226Z,-1.33
2022-12-11T06:48:09.745Z,-1.15
2022-12-11T06:50:40.497Z,-1.24
2022-12-11T06:53:08.437Z,-1.29
2022-12-11T06:55:36.713Z,-1.32
2022-12-11T06:58:04.913Z,-1.33
2022-12-11T07:00:32.906Z,-1.40
2022-12-11T07:03:00.729Z,-1.48
2022-12-11T07:05:28.644Z,-1.27
2022-12-11T07:07:58.009Z,-1.32
2022-12-11T07:10:27.295Z,-1.23
2022-12-11T07:12:55.280Z,-1.26
2022-12-11T07:15:23.199Z,-1.23
2022-12-11T07:17:51.083Z,-1.23
2022-12-11T07:20:19.147Z,-1.26
2022-12-11T07:22:47.090Z,-1.27
2022-12-11T07:25:16.578Z,-1.25
2022-12-11T07:27:44.771Z,-1.30
2022-12-11T07:30:14.133Z,-1.22
2022-12-11T07:32:42.118Z,-1.18
2022-12-11T07:35:10.829Z,-1.18
2022-12-11T07:37:41.595Z,-1.24
2022-12-11T07:40:10.976Z,-1.11
2022-12-11T07:42:45.790Z,-1.07
2022-12-11T07:45:14.417Z,-1.19
2022-12-11T07:47:42.868Z,-1.04
2022-12-11T07:50:11.073Z,-1.01
2022-12-11T07:52:38.991Z,-0.97
2022-12-11T07:55:07.438Z,-0.93
2022-12-11T07:57:35.380Z,-1.13
2022-12-11T08:00:06.048Z,-1.34
2022-12-11T08:02:37.202Z,-1.05
2022-12-11T08:05:06.154Z,-1.11
2022-12-11T08:07:35.548Z,-0.93
2022-12-11T08:10:03.546Z,-0.77
2022-12-11T08:12:31.591Z,-0.88
2022-12-11T08:14:59.753Z,-0.67
2022-12-11T08:17:32.799Z,-0.59
2022-12-11T08:20:03.161Z,-0.40
2022-12-11T08:22:31.055Z,-0.43
2022-12-11T08:24:59.359Z,-0.28
2022-12-11T08:27:27.462Z,-0.35
2022-12-11T08:29:55.353Z,-0.14
2022-12-11T08:32:23.265Z,-0.20
2022-12-11T08:34:53.564Z,-0.19
2022-12-11T08:37:21.457Z,-0.32
2022-12-11T08:39:49.366Z,-0.59
2022-12-11T08:42:17.268Z,-0.60
2022-12-11T08:44:46.084Z,-0.64
2022-12-11T08:47:15.401Z,-0.76
2022-12-11T08:49:43.347Z,-0.84
2022-12-11T08:52:12.617Z,-0.66
2022-12-11T08:54:40.548Z,-0.47
2022-12-11T08:57:08.480Z,-0.20
2022-12-11T08:59:36.457Z,-0.21
2022-12-11T09:02:04.372Z,-0.60
2022-12-11T09:04:32.300Z,-0.31
2022-12-11T09:07:00.216Z,-0.11
2022-12-11T09:09:29.467Z,-0.15
2022-12-11T09:11:57.633Z,0.15
2022-12-11T09:14:25.555Z,0.02
2022-12-11T09:16:53.422Z,-0.17
2022-12-11T09:19:21.319Z,-0.09
2022-12-11T09:21:49.289Z,-0.34
2022-12-11T09:24:17.299Z,-0.09
2022-12-11T09:26:47.250Z,0.08
2022-12-11T09:29:15.224Z,0.33
2022-12-11T09:31:43.271Z,0.11
2022-12-11T09:34:13.986Z,0.38
2022-12-11T09:36:42.691Z,0.25
2022-12-11T09:39:12.550Z,0.19
2022-12-11T09:41:41.731Z,0.07
2022-12-11T09:44:31.547Z,0.29
2022-12-11T09:46:59.976Z,0.47
2022-12-11T09:49:32.948Z,0.34
2022-12-11T09:52:06.340Z,0.35
2022-12-11T09:54:34.553Z,0.35
2022-12-11T09:57:11.331Z,0.60
2022-12-11T09:59:48.665Z,0.66
2022-12-11T10:02:25.968Z,0.53
2022-12-11T10:05:02.769Z,0.35
2022-12-11T10:07:36.232Z,0.18
2022-12-11T10:10:10.421Z,0.06
2022-12-11T10:12:43.553Z,-0.09
2022-12-11T10:15:33.286Z,-0.02
2022-12-11T10:18:05.110Z,0.08
2022-12-11T10:20:36.536Z,0.15
2022-12-11T10:23:07.744Z,0.00
2022-12-11T10:25:38.408Z,-0.05
2022-12-11T10:28:13.389Z,-0.31
2022-12-11T10:30:48.156Z,-0.10
2022-12-11T10:33:21.523Z,0.11
2022-12-11T10:35:51.785Z,0.10
2022-12-11T10:38:24.847Z,-0.01
2022-12-11T10:40:55.514Z,0.03
2022-12-11T10:43:34.048Z,0.13
2022-12-11T10:46:03.668Z,-0.29
2022-12-11T10:48:31.569Z,-0.34
2022-12-11T10:51:02.297Z,-0.04
2022-12-11T10:53:30.884Z,-0.06
2022-12-11T10:55:59.893Z,0.24
2022-12-11T10:58:31.862Z,-0.03
2022-12-11T11:01:06.533Z,0.14
2022-12-11T11:03:35.670Z,0.32
2022-12-11T11:06:05.519Z,0.40
2022-12-11T11:08:40.708Z,0.28
2022-12-11T11:11:22.472Z,0.29
2022-12-11T11:13:50.595Z,0.61
2022-12-11T11:16:21.948Z,0.57
2022-12-11T11:18:55.307Z,0.29
2022-12-11T11:21:25.563Z,0.57
2022-12-11T11:23:54.643Z,0.67
2022-12-11T11:26:23.642Z,0.57
2022-12-11T11:28:54.111Z,0.47
2022-12-11T11:31:33.197Z,0.58
2022-12-11T11:34:04.090Z,0.72
2022-12-11T11:36:34.475Z,0.91
2022-12-11T11:39:18.132Z,1.32
2022-12-11T11:41:51.855Z,1.41
2022-12-11T11:44:24.851Z,1.67
2022-12-11T11:46:59.539Z,1.67
2022-12-11T11:49:37.356Z,1.78
2022-12-11T11:52:13.591Z,1.92
2022-12-11T11:54:45.056Z,1.94
2022-12-11T11:57:16.053Z,1.67
2022-12-11T11:59:47.588Z,1.46
2022-12-11T12:02:18.737Z,1.45
2022-12-11T12:04:51.228Z,1.17
2022-12-11T12:07:28.842Z,1.05
2022-12-11T12:10:00.258Z,0.97
2022-12-11T12:12:35.884Z,0.83
2022-12-11T12:15:18.378Z,0.51
2022-12-11T12:17:55.708Z,0.30
2022-12-11T12:20:31.017Z,0.18
2022-12-11T12:23:04.307Z,0.01
2022-12-11T12:25:36.894Z,-0.14
2022-12-11T12:28:14.449Z,-0.20
2022-12-11T12:30:52.187Z,-0.25
2022-12-11T12:33:28.642Z,-0.30
2022-12-11T12:36:07.210Z,-0.21
2022-12-11T12:38:42.641Z,-0.38
2022-12-11T12:41:15.671Z,-0.42
2022-12-11T12:43:58.545Z,-0.48
2022-12-11T12:46:35.973Z,-0.57
2022-12-11T12:49:05.881Z,-0.74
2022-12-11T12:51:33.919Z,-0.70
2022-12-11T12:54:09.086Z,-0.80
2022-12-11T12:56:43.665Z,-0.86
2022-12-11T12:59:21.029Z,-0.84
2022-12-11T13:01:52.313Z,-0.90
2022-12-11T13:04:55.159Z,-1.16
2022-12-11T13:07:27.273Z,-0.97
2022-12-11T13:10:04.489Z,-1.07
2022-12-11T13:12:35.280Z,-1.16
2022-12-11T13:15:03.198Z,-1.55
2022-12-11T13:17:38.660Z,-1.59
2022-12-11T13:20:16.208Z,-1.80
2022-12-11T13:22:57.827Z,-1.91
2022-12-11T13:25:29.569Z,-1.89
2022-12-11T13:28:06.728Z,-1.73
2022-12-11T13:30:35.457Z,-1.59
2022-12-11T13:33:06.508Z,-1.50
2022-12-11T13:35:36.527Z,-1.51
2022-12-11T13:38:14.008Z,-1.49
2022-12-11T13:40:43.432Z,-1.58
2022-12-11T13:43:19.743Z,-1.69
2022-12-11T13:45:50.769Z,-1.59
2022-12-11T13:48:24.952Z,-1.57
2022-12-11T13:50:55.019Z,-1.60
2022-12-11T13:53:23.645Z,-1.60
2022-12-11T13:55:59.230Z,-1.64
2022-12-11T13:58:27.794Z,-1.53
2022-12-11T14:01:07.657Z,-1.60
2022-12-11T14:03:36.295Z,-1.56
2022-12-11T14:06:06.039Z,-1.53
2022-12-11T14:08:36.172Z,-1.40
2022-12-11T14:11:04.380Z,-1.68
2022-12-11T14:13:34.514Z,-1.53
2022-12-11T14:16:03.070Z,-1.56
2022-12-11T14:18:33.130Z,-1.51
2022-12-11T14:21:03.298Z,-1.62
2022-12-11T14:23:33.789Z,-1.56
2022-12-11T14:26:03.281Z,-1.61
2022-12-11T14:28:38.447Z,-1.64
2022-12-11T14:31:07.076Z,-1.56
2022-12-11T14:33:38.067Z,-1.62
2022-12-11T14:36:07.414Z,-1.61
2022-12-11T14:38:39.579Z,-1.67
2022-12-11T14:41:13.808Z,-1.62
2022-12-11T14:43:45.488Z,-1.49
2022-12-11T14:46:18.364Z,-1.42
2022-12-11T14:48:49.467Z,-1.65
2022-12-11T14:51:19.283Z,-1.80
2022-12-11T14:53:50.601Z,-1.74
2022-12-11T14:56:21.166Z,-1.87
2022-12-11T14:58:54.654Z,-1.93
2022-12-11T15:01:24.641Z,-1.91
2022-12-11T15:04:04.204Z,-1.98
2022-12-11T15:06:33.743Z,-2.00
2022-12-11T15:09:18.822Z,-1.84
2022-12-11T15:11:47.257Z,-1.78
2022-12-11T15:14:15.508Z,-1.79
2022-12-11T15:16:43.719Z,-1.76
2022-12-11T15:19:20.788Z,-1.77
2022-12-11T15:21:48.863Z,-1.81
2022-12-11T15:24:27.562Z,-1.70
2022-12-11T15:26:59.169Z,-1.77
2022-12-11T15:29:32.246Z,-1.74
2022-12-11T15:32:01.507Z,-1.76
2022-12-11T15:34:34.791Z,-1.78
2022-12-11T15:37:03.029Z,-1.87
2022-12-11T15:39:32.344Z,-1.89
2022-12-11T15:42:08.276Z,-1.83
2022-12-11T15:44:36.188Z,-1.87
2022-12-11T15:47:13.264Z,-1.92
2022-12-11T15:49:41.159Z,-1.98
2022-12-11T15:52:09.355Z,-1.88
2022-12-11T15:54:38.676Z,-1.97
2022-12-11T15:57:10.973Z,-1.96
2022-12-11T15:59:38.938Z,-1.90
2022-12-11T16:02:12.074Z,-1.98
2022-12-11T16:04:40.104Z,-1.93
2022-12-11T16:07:14.546Z,-2.02
2022-12-11T16:09:43.884Z,-2.09
2022-12-11T16:12:12.101Z,-2.13
2022-12-11T16:14:40.108Z,-2.04
2022-12-11T16:17:08.569Z,-2.04
2022-12-11T16:19:37.611Z,-2.06
2022-12-11T16:22:06.053Z,-1.99
2022-12-11T16:24:34.513Z,-2.23
2022-12-11T16:27:04.308Z,-2.17
2022-12-11T16:29:34.915Z,-2.11
2022-12-11T16:32:02.828Z,-2.14
2022-12-11T16:34:30.735Z,-2.14
2022-12-11T16:36:59.482Z,-2.10
2022-12-11T16:39:27.877Z,-2.09
2022-12-11T16:41:55.801Z,-2.06
2022-12-11T16:44:26.748Z,-2.24
2022-12-11T16:46:55.276Z,-2.17
2022-12-11T16:49:23.763Z,-2.17
2022-12-11T16:51:51.697Z,-2.25
2022-12-11T16:54:19.875Z,-2.13
2022-12-11T16:56:48.377Z,-2.10
2022-12-11T16:59:16.409Z,-2.21
2022-12-11T17:01:46.026Z,-2.13
2022-12-11T17:04:13.990Z,-2.24
2022-12-11T17:06:41.869Z,-2.22
2022-12-11T17:09:10.421Z,-2.27
2022-12-11T17:11:38.385Z,-2.23
2022-12-11T17:14:06.379Z,-2.21
2022-12-11T17:16:34.370Z,-2.29
2022-12-11T17:19:05.316Z,-2.31
2022-12-11T17:21:33.192Z,-2.50
2022-12-11T17:24:01.436Z,-2.34
2022-12-11T17:26:29.626Z,-2.16
2022-12-11T17:28:57.732Z,-2.38
2022-12-11T17:31:25.820Z,-2.39
2022-12-11T17:33:53.984Z,-2.44
2022-12-11T17:36:23.493Z,-2.19
2022-12-11T17:38:51.423Z,-2.22
2022-12-11T17:41:21.165Z,-2.19
2022-12-11T17:43:49.601Z,-2.32
2022-12-11T17:46:18.147Z,-2.32
2022-12-11T17:48:46.221Z,-2.26
2022-12-11T17:51:21.035Z,-2.32
2022-12-11T17:53:50.753Z,-2.32
2022-12-11T17:56:19.048Z,-2.34
2022-12-11T17:58:46.986Z,-2.35
2022-12-11T18:01:15.079Z,-2.35
2022-12-11T18:03:43.237Z,-2.38
2022-12-11T18:06:14.361Z,-2.44
2022-12-11T18:08:42.483Z,-2.43
2022-12-11T18:11:13.968Z,-2.52
2022-12-11T18:13:42.111Z,-2.38
2022-12-11T18:16:12.120Z,-2.48
2022-12-11T18:18:40.603Z,-2.42
2022-12-11T18:21:08.560Z,-2.29
2022-12-11T18:23:36.504Z,-2.35
2022-12-11T18:26:04.573Z,-2.44
2022-12-11T18:28:33.854Z,-2.47
2022-12-11T18:31:02.385Z,-2.50
2022-12-11T18:33:31.212Z,-2.48
2022-12-11T18:35:59.164Z,-2.48
2022-12-11T18:38:27.220Z,-2.54
2022-12-11T18:40:55.091Z,-2.56
2022-12-11T18:43:23.007Z,-2.46
2022-12-11T18:45:52.297Z,-2.53
2022-12-11T18:48:20.185Z,-2.46
2022-12-11T18:50:48.995Z,-2.54
2022-12-11T18:53:17.976Z,-2.42
2022-12-11T18:55:47.695Z,-2.42
2022-12-11T18:58:17.454Z,-2.54
2022-12-11T19:00:46.128Z,-2.50
2022-12-11T19:03:15.539Z,-2.43
2022-12-11T19:05:43.984Z,-2.43
2022-12-11T19:08:13.941Z,-2.49
2022-12-11T19:10:43.521Z,-2.51
2022-12-11T19:13:11.712Z,-2.55
2022-12-11T19:15:41.855Z,-2.55
2022-12-11T19:18:10.044Z,-2.49
2022-12-11T19:20:49.777Z,-2.53
2022-12-11T19:23:20.950Z,-2.58
2022-12-11T19:25:49.291Z,-2.62
2022-12-11T19:28:17.835Z,-2.55
2022-12-11T19:30:46.177Z,-2.59
2022-12-11T19:33:14.175Z,-2.51
2022-12-11T19:35:43.944Z,-2.52
2022-12-11T19:38:12.748Z,-2.54
2022-12-11T19:40:42.278Z,-2.59
2022-12-11T19:43:10.367Z,-2.56
2022-12-11T19:45:38.532Z,-2.61
2022-12-11T19:48:06.918Z,-2.61
2022-12-11T19:50:36.363Z,-2.53
2022-12-11T19:53:05.694Z,-2.65
2022-12-11T19:55:33.964Z,-2.55
2022-12-11T19:58:01.881Z,-2.59
2022-12-11T20:00:29.819Z,-2.59
2022-12-11T20:02:57.836Z,-2.57
2022-12-11T20:05:25.707Z,-2.59
2022-12-11T20:07:53.659Z,-2.48
2022-12-11T20:10:22.993Z,-2.69
2022-12-11T20:12:52.526Z,-2.67
2022-12-11T20:15:20.541Z,-2.68
2022-12-11T20:17:48.462Z,-2.65
2022-12-11T20:20:16.372Z,-2.65
2022-12-11T20:22:44.292Z,-2.69
2022-12-11T20:25:12.619Z,-2.81
2022-12-11T20:27:42.147Z,-2.83
2022-12-11T20:30:11.137Z,-2.72
2022-12-11T20:32:39.239Z,-2.69
2022-12-11T20:35:08.469Z,-2.69
2022-12-11T20:37:36.604Z,-2.70
2022-12-11T20:40:05.448Z,-2.56
2022-12-11T20:42:33.766Z,-2.59
2022-12-11T20:45:03.098Z,-2.67
2022-12-11T20:47:31.010Z,-2.77
2022-12-11T20:49:59.090Z,-2.64
2022-12-11T20:52:28.078Z,-2.76
2022-12-11T20:54:55.966Z,-2.77
2022-12-11T20:57:23.967Z,-2.77
2022-12-11T20:59:51.896Z,-2.64
2022-12-11T21:02:21.248Z,-2.71
2022-12-11T21:04:49.220Z,-2.65
2022-12-11T21:07:17.269Z,-2.67
2022-12-11T21:09:45.158Z,-2.79
2022-12-11T21:12:13.054Z,-2.68
2022-12-11T21:14:41.062Z,-2.65
2022-12-11T21:17:09.088Z,-2.83
2022-12-11T21:19:38.368Z,-2.67
2022-12-11T21:22:06.734Z,-2.75
2022-12-11T21:24:34.703Z,-2.60
2022-12-11T21:27:02.576Z,-2.69
2022-12-11T21:29:30.505Z,-2.69
2022-12-11T21:31:59.140Z,-2.69
2022-12-11T21:34:27.541Z,-2.73
2022-12-11T21:36:57.472Z,-2.71
2022-12-11T21:39:26.103Z,-2.73
2022-12-11T21:41:54.007Z,-2.78
2022-12-11T21:47:09.850Z,-3.06
2022-12-11T21:49:38.391Z,-3.05
2022-12-11T21:52:08.425Z,-3.00
2022-12-11T21:54:36.333Z,-3.24
2022-12-11T21:57:04.821Z,-3.32
2022-12-11T21:59:33.007Z,-3.27
2022-12-11T22:02:01.177Z,-3.22
2022-12-11T22:04:29.155Z,-3.12
2022-12-11T22:06:57.092Z,-3.12
2022-12-11T22:09:26.795Z,-3.02
2022-12-11T22:11:58.324Z,-2.97
2022-12-11T22:14:26.825Z,-2.91
2022-12-11T22:16:54.752Z,-2.85
2022-12-11T22:19:23.990Z,-2.93
2022-12-11T22:21:54.517Z,-3.02
2022-12-11T22:24:22.433Z,-2.94
2022-12-11T22:26:51.709Z,-3.06
2022-12-11T22:29:19.579Z,-2.99
2022-12-11T22:31:47.583Z,-2.98
2022-12-11T22:34:15.605Z,-2.97
2022-12-11T22:36:43.485Z,-3.02
2022-12-11T22:39:11.367Z,-3.08
2022-12-11T22:41:42.235Z,-3.15
2022-12-11T22:44:15.070Z,-2.95
2022-12-11T22:46:49.492Z,-2.92
2022-12-11T22:49:18.355Z,-3.04
2022-12-11T22:51:46.252Z,-3.03
2022-12-11T22:54:14.161Z,-3.15
2022-12-11T22:56:42.092Z,-3.15
2022-12-11T22:59:10.069Z,-3.35
2022-12-11T23:01:39.341Z,-3.30
2022-12-11T23:04:07.283Z,-3.37
2022-12-11T23:06:35.419Z,-3.51
2022-12-11T23:09:04.006Z,-3.58
2022-12-11T23:11:36.289Z,-3.53
2022-12-11T23:14:04.608Z,-3.58
2022-12-11T23:16:32.618Z,-3.63
2022-12-11T23:19:01.992Z,-3.65
2022-12-11T23:21:30.075Z,-3.77
2022-12-11T23:24:00.390Z,-3.80
2022-12-11T23:26:29.644Z,-3.85
2022-12-11T23:28:58.659Z,-3.92
2022-12-11T23:31:27.260Z,-3.88
2022-12-11T23:33:55.450Z,-4.00
2022-12-11T23:36:25.320Z,-3.91
2022-12-11T23:38:55.014Z,-3.87
2022-12-11T23:41:23.755Z,-3.93
2022-12-11T23:43:51.673Z,-3.98
2022-12-11T23:46:21.139Z,-3.95
2022-12-11T23:48:49.460Z,-4.01
2022-12-11T23:51:19.028Z,-3.94
2022-12-11T23:53:48.316Z,-3.96
2022-12-11T23:56:18.350Z,-3.99
2022-12-11T23:58:46.472Z,-4.06
